Time;durP1;ratioP1;P1;durP2;ratioP2;P2;SDS_P1;SDS_P2;PMS_P1;PMS_P2;Temp;Humidity;BMP_temperature;BMP_pressure;BME280_temperature;BME280_humidity;BME280_pressure;Samples;Min_cycle;Max_cycle;Signal;HPM_P1;HPM_P2
2023/09/18 00:01:26;;;;;;;11.30;10.90;;;19.00;99.90;;;;;;6205025;23;20207;-81
2023/09/18 00:03:53;;;;;;;11.20;10.80;;;19.00;99.90;;;;;;6204066;23;20196;-81
2023/09/18 00:06:23;;;;;;;11.18;10.88;;;18.90;99.90;;;;;;6203457;23;20199;-81
2023/09/18 00:08:53;;;;;;;11.05;10.75;;;18.90;99.90;;;;;;6203688;23;20204;-82
2023/09/18 00:11:20;;;;;;;11.20;10.85;;;18.90;99.90;;;;;;6202834;23;20263;-81
2023/09/18 00:13:47;;;;;;;11.45;11.05;;;18.80;99.90;;;;;;6204371;23;20210;-81
2023/09/18 00:16:14;;;;;;;10.90;10.60;;;18.80;99.90;;;;;;6204638;23;20212;-82
2023/09/18 00:18:41;;;;;;;10.98;10.68;;;18.80;99.90;;;;;;6204971;23;20208;-81
2023/09/18 00:21:10;;;;;;;10.90;10.60;;;18.80;99.90;;;;;;6204620;23;20256;-82
2023/09/18 00:23:37;;;;;;;10.90;10.60;;;18.80;99.90;;;;;;6204095;23;20224;-81
2023/09/18 00:26:06;;;;;;;10.90;10.60;;;18.70;99.90;;;;;;6203921;23;20272;-81
2023/09/18 00:28:33;;;;;;;11.20;10.80;;;18.70;99.90;;;;;;6204075;23;20212;-82
2023/09/18 00:31:00;;;;;;;11.13;10.80;;;18.70;99.90;;;;;;6203562;23;20238;-81
2023/09/18 00:33:27;;;;;;;10.98;10.68;;;18.70;99.90;;;;;;6203856;23;20513;-81
2023/09/18 00:35:55;;;;;;;10.95;10.65;;;18.60;99.90;;;;;;6203847;23;20223;-81
2023/09/18 00:38:22;;;;;;;11.00;10.70;;;18.60;99.90;;;;;;6204039;23;20240;-81
2023/09/18 00:40:49;;;;;;;11.18;10.77;;;18.50;99.90;;;;;;6204531;23;20219;-82
2023/09/18 00:43:18;;;;;;;11.38;10.98;;;18.50;99.90;;;;;;6205259;23;20192;-81
2023/09/18 00:45:49;;;;;;;11.20;10.80;;;18.40;99.90;;;;;;6205350;23;20208;-81
2023/09/18 00:48:17;;;;;;;11.00;10.70;;;18.50;99.90;;;;;;6206339;23;20188;-81
2023/09/18 00:50:45;;;;;;;11.15;10.75;;;18.40;99.90;;;;;;6205767;23;20268;-81
2023/09/18 00:53:18;;;;;;;11.20;10.80;;;18.40;99.90;;;;;;6210821;23;20249;-81
2023/09/18 00:55:46;;;;;;;11.20;10.80;;;18.30;99.90;;;;;;6210405;23;20234;-81
2023/09/18 00:58:13;;;;;;;10.90;10.60;;;18.30;99.90;;;;;;6208528;23;20286;-81
2023/09/18 01:00:42;;;;;;;10.90;10.60;;;18.30;99.90;;;;;;6206283;23;20204;-81
2023/09/18 01:03:09;;;;;;;10.88;10.57;;;18.30;99.90;;;;;;6206396;23;20230;-81
2023/09/18 01:05:36;;;;;;;11.20;10.80;;;18.30;99.90;;;;;;6205471;23;20206;-82
2023/09/18 01:08:05;;;;;;;11.15;10.75;;;18.30;99.90;;;;;;6204825;23;20234;-81
2023/09/18 01:10:39;;;;;;;11.50;11.10;;;18.20;99.90;;;;;;6205759;23;20215;-81
2023/09/18 01:13:13;;;;;;;11.38;10.98;;;18.20;99.90;;;;;;6205342;23;20277;-81
2023/09/18 01:15:49;;;;;;;11.30;10.90;;;18.20;99.90;;;;;;6205466;23;20188;-81
2023/09/18 01:18:18;;;;;;;11.05;10.65;;;18.20;99.90;;;;;;6205534;23;20183;-81
2023/09/18 01:20:45;;;;;;;11.07;10.68;;;18.10;99.90;;;;;;6205517;23;20203;-81
2023/09/18 01:23:14;;;;;;;11.20;10.80;;;18.10;99.90;;;;;;6205965;23;20201;-81
2023/09/18 01:25:41;;;;;;;11.18;10.77;;;18.10;99.90;;;;;;6205300;23;20223;-83
2023/09/18 01:28:08;;;;;;;11.20;10.80;;;18.10;99.90;;;;;;6205026;23;20222;-81
2023/09/18 01:30:35;;;;;;;11.02;10.63;;;18.10;99.90;;;;;;6204608;23;20207;-81
2023/09/18 01:33:04;;;;;;;10.85;10.52;;;18.10;99.90;;;;;;6204562;23;20195;-81
2023/09/18 01:35:32;;;;;;;11.10;10.70;;;18.10;99.90;;;;;;6204553;23;20267;-82
2023/09/18 01:38:00;;;;;;;11.10;10.70;;;18.10;99.90;;;;;;6206934;23;20238;-81
2023/09/18 01:40:30;;;;;;;10.80;10.50;;;18.00;99.90;;;;;;6205008;23;20199;-82
2023/09/18 01:42:57;;;;;;;11.13;10.73;;;18.00;99.90;;;;;;6204895;23;20231;-81
2023/09/18 01:45:24;;;;;;;10.95;10.57;;;18.00;99.90;;;;;;6204279;23;20296;-81
2023/09/18 01:47:51;;;;;;;11.05;10.65;;;18.00;99.90;;;;;;6205540;23;20200;-82
2023/09/18 07:50:11;;;;;;;10.50;10.20;;;21.40;99.90;;;;;;6189178;22;20213;-81
2023/09/18 07:52:38;;;;;;;10.40;10.10;;;21.40;99.90;;;;;;6207176;23;20211;-81
2023/09/18 07:55:06;;;;;;;10.38;10.07;;;21.40;99.90;;;;;;6209795;23;20236;-82
2023/09/18 07:57:34;;;;;;;10.50;10.20;;;21.50;99.90;;;;;;6208424;23;20226;-82
2023/09/18 08:00:09;;;;;;;10.30;10.00;;;21.60;99.90;;;;;;6209721;23;20206;-81
2023/09/18 08:02:37;;;;;;;10.60;10.30;;;21.70;99.90;;;;;;6207337;23;20278;-81
2023/09/18 08:05:05;;;;;;;10.88;10.57;;;21.80;99.90;;;;;;6207958;23;20203;-82
2023/09/18 08:07:35;;;;;;;10.88;10.57;;;22.00;99.90;;;;;;6208199;23;20195;-82
2023/09/18 08:10:05;;;;;;;10.60;10.30;;;22.10;99.90;;;;;;6207342;23;20219;-81
2023/09/18 08:12:32;;;;;;;10.88;10.57;;;22.20;99.90;;;;;;6207270;23;20214;-82
2023/09/18 08:14:59;;;;;;;10.90;10.60;;;22.30;99.90;;;;;;6208457;23;20199;-83
2023/09/18 08:17:27;;;;;;;10.90;10.60;;;22.50;99.90;;;;;;6214194;23;20222;-81
2023/09/18 08:19:54;;;;;;;10.90;10.60;;;22.60;99.90;;;;;;6211898;23;20219;-82
2023/09/18 08:22:21;;;;;;;10.93;10.63;;;22.90;99.90;;;;;;6207798;23;20207;-82
2023/09/18 08:24:52;;;;;;;11.10;10.80;;;23.10;99.90;;;;;;6208166;23;20210;-81
2023/09/18 08:27:20;;;;;;;10.90;10.60;;;23.40;99.90;;;;;;6208825;23;20231;-82
2023/09/18 08:29:47;;;;;;;11.00;10.70;;;23.60;99.90;;;;;;6207706;23;20256;-81
2023/09/18 08:32:14;;;;;;;10.95;10.65;;;23.70;99.90;;;;;;6208532;23;20215;-82
2023/09/18 08:34:41;;;;;;;11.10;10.80;;;23.80;99.90;;;;;;6207007;23;20227;-81
2023/09/18 08:37:09;;;;;;;11.10;10.80;;;23.90;99.90;;;;;;6207128;23;20238;-81
2023/09/18 08:39:37;;;;;;;11.10;10.80;;;24.00;99.90;;;;;;6207760;23;20218;-82
2023/09/18 08:42:08;;;;;;;11.18;10.88;;;24.20;99.90;;;;;;6206993;23;20226;-82
2023/09/18 08:44:40;;;;;;;10.95;10.65;;;24.30;99.90;;;;;;6207119;23;20192;-81
2023/09/18 08:47:09;;;;;;;11.48;11.07;;;24.50;99.90;;;;;;6207982;23;20203;-82
2023/09/18 08:49:37;;;;;;;11.18;10.88;;;24.60;99.90;;;;;;6207488;23;20235;-82
2023/09/18 08:52:05;;;;;;;11.60;11.20;;;24.80;99.90;;;;;;6207450;23;20208;-82
2023/09/18 08:54:33;;;;;;;11.23;10.93;;;25.00;99.90;;;;;;6211567;23;20203;-81
2023/09/18 08:57:00;;;;;;;10.80;10.50;;;25.30;99.90;;;;;;6208412;23;20222;-82
2023/09/18 08:59:30;;;;;;;10.90;10.60;;;25.50;99.90;;;;;;6205135;23;20211;-79
2023/09/18 09:01:57;;;;;;;11.02;10.73;;;25.80;99.90;;;;;;6208012;23;20206;-79
2023/09/18 09:04:25;;;;;;;11.13;10.82;;;26.00;99.90;;;;;;6214530;23;20203;-80
2023/09/18 09:06:52;;;;;;;11.07;10.77;;;26.30;99.90;;;;;;6214938;23;20203;-81
2023/09/18 09:09:20;;;;;;;11.10;10.80;;;26.40;99.90;;;;;;6212900;23;20199;-80
2023/09/18 09:11:50;;;;;;;11.13;10.82;;;26.60;99.90;;;;;;6203383;23;20215;-79
2023/09/18 09:14:21;;;;;;;11.15;10.85;;;26.60;99.90;;;;;;6202852;23;20227;-79
2023/09/18 09:16:51;;;;;;;11.25;10.95;;;26.40;99.90;;;;;;6203631;23;20283;-79
2023/09/18 09:19:18;;;;;;;10.80;10.50;;;26.20;99.90;;;;;;6202682;23;20199;-80
2023/09/18 09:21:48;;;;;;;11.02;10.73;;;26.10;99.90;;;;;;6202407;23;20247;-80
2023/09/18 09:24:15;;;;;;;11.15;10.85;;;26.10;99.90;;;;;;6203715;23;20198;-81
2023/09/18 09:26:43;;;;;;;11.15;10.85;;;26.30;99.90;;;;;;6204554;23;20207;-81
2023/09/18 09:29:18;;;;;;;10.98;10.68;;;26.40;99.90;;;;;;6205124;23;20199;-81
2023/09/18 09:31:46;;;;;;;11.00;10.70;;;26.70;99.90;;;;;;6204368;23;20230;-81
2023/09/18 09:34:26;;;;;;;11.05;10.75;;;27.00;99.90;;;;;;6204534;23;20219;-80
2023/09/18 09:36:55;;;;;;;11.20;10.90;;;27.30;99.90;;;;;;6204510;23;20203;-80
2023/09/18 09:39:24;;;;;;;10.88;10.57;;;27.50;99.90;;;;;;6204308;23;20208;-80
2023/09/18 09:41:52;;;;;;;11.05;10.75;;;27.70;99.90;;;;;;6204897;23;20206;-81
2023/09/18 09:44:21;;;;;;;11.05;10.75;;;27.90;99.90;;;;;;6204173;23;20210;-81
2023/09/18 09:46:49;;;;;;;10.77;10.48;;;28.00;99.90;;;;;;6203639;23;20212;-81
2023/09/18 09:49:23;;;;;;;10.85;10.55;;;28.20;99.90;;;;;;6203470;23;20211;-81
2023/09/18 09:51:50;;;;;;;10.98;10.68;;;28.30;99.90;;;;;;6202909;23;20251;-80
2023/09/18 09:54:39;;;;;;;10.88;10.57;;;28.00;99.90;;;;;;6204634;23;20207;-81
2023/09/18 09:57:06;;;;;;;11.00;10.70;;;28.20;99.90;;;;;;6204628;23;20223;-81
2023/09/18 09:59:35;;;;;;;10.82;10.52;;;28.20;99.90;;;;;;6203796;23;20206;-81
2023/09/18 10:02:03;;;;;;;10.80;10.50;;;28.20;99.90;;;;;;6204271;23;20268;-81
2023/09/18 10:04:36;;;;;;;10.63;10.32;;;28.10;99.90;;;;;;6204209;23;20207;-81
2023/09/18 10:07:09;;;;;;;10.80;10.50;;;27.90;99.90;;;;;;6203812;23;20192;-81
2023/09/18 10:09:42;;;;;;;10.80;10.50;;;27.80;99.90;;;;;;6203915;23;20254;-81
2023/09/18 10:12:16;;;;;;;10.70;10.40;;;27.70;99.90;;;;;;6203293;23;20192;-81
2023/09/18 10:14:48;;;;;;;10.95;10.65;;;27.50;99.90;;;;;;6203415;23;20191;-81
2023/09/18 10:17:19;;;;;;;10.90;10.60;;;26.90;99.90;;;;;;6204283;23;20259;-81
2023/09/18 10:19:56;;;;;;;10.57;10.27;;;26.70;99.90;;;;;;6203620;23;20203;-81
2023/09/18 10:22:37;;;;;;;10.73;10.43;;;26.50;99.90;;;;;;6205861;23;20192;-81
2023/09/18 10:25:12;;;;;;;10.80;10.50;;;26.40;99.90;;;;;;6206818;23;20188;-81
2023/09/18 10:27:46;;;;;;;10.60;10.30;;;26.40;99.90;;;;;;6203554;23;20202;-82
2023/09/18 10:30:14;;;;;;;10.57;10.27;;;26.40;99.90;;;;;;6203072;23;20199;-81
2023/09/18 10:32:41;;;;;;;10.50;10.20;;;26.40;99.90;;;;;;6203820;23;20204;-81
2023/09/18 10:35:12;;;;;;;10.32;10.02;;;26.40;99.90;;;;;;6204572;23;20265;-80
2023/09/18 10:37:39;;;;;;;10.48;10.18;;;26.30;99.90;;;;;;6203811;23;20190;-81
2023/09/18 10:40:09;;;;;;;10.20;9.90;;;26.30;99.90;;;;;;6204574;23;20210;-81
2023/09/18 10:42:39;;;;;;;10.00;9.70;;;26.40;99.90;;;;;;6203717;23;20218;-81
2023/09/18 10:45:10;;;;;;;10.10;9.80;;;26.40;99.90;;;;;;6203758;23;20207;-80
2023/09/18 10:47:39;;;;;;;10.00;9.70;;;26.40;99.90;;;;;;6203750;23;20184;-80
2023/09/18 10:50:09;;;;;;;10.35;10.05;;;26.20;99.90;;;;;;6202762;23;20207;-80
2023/09/18 10:52:44;;;;;;;10.52;10.23;;;26.00;99.90;;;;;;6202896;23;20226;-81
2023/09/18 10:55:14;;;;;;;10.40;10.10;;;25.90;99.90;;;;;;6202532;23;20196;-80
2023/09/18 10:57:52;;;;;;;10.30;10.00;;;25.80;99.90;;;;;;6202932;23;20257;-80
2023/09/18 11:00:22;;;;;;;10.20;9.90;;;25.80;99.90;;;;;;6202748;23;20267;-80
2023/09/18 11:02:52;;;;;;;10.13;9.82;;;25.70;99.90;;;;;;6201824;23;20663;-80
2023/09/18 11:05:31;;;;;;;9.90;9.60;;;25.60;99.90;;;;;;6202953;23;20215;-80
2023/09/18 11:08:31;;;;;;;10.07;9.77;;;25.50;99.90;;;;;;6202134;23;20199;-79
2023/09/18 11:11:14;;;;;;;10.10;9.80;;;25.40;99.90;;;;;;6196060;23;20195;-80
2023/09/18 11:13:45;;;;;;;10.10;9.80;;;25.40;99.90;;;;;;6202264;23;20219;-80
2023/09/18 11:16:35;;;;;;;10.00;9.70;;;25.50;99.90;;;;;;6202346;23;20194;-80
2023/09/18 11:19:19;;;;;;;10.20;9.90;;;25.50;99.90;;;;;;6201895;23;20211;-80
2023/09/18 11:21:47;;;;;;;10.00;9.70;;;25.10;99.90;;;;;;6202793;23;20188;-81
2023/09/18 11:24:22;;;;;;;10.18;9.88;;;25.00;99.90;;;;;;6203766;23;20287;-80
2023/09/18 11:26:52;;;;;;;10.20;9.90;;;24.80;99.90;;;;;;6206448;23;20183;-80
2023/09/18 11:29:26;;;;;;;10.10;9.80;;;24.70;99.90;;;;;;6209144;23;20277;-80
2023/09/18 11:31:56;;;;;;;10.40;10.10;;;24.50;99.90;;;;;;6209475;23;20290;-80
2023/09/18 11:34:27;;;;;;;10.30;10.00;;;24.40;99.90;;;;;;6207011;23;20207;-81
2023/09/18 11:36:54;;;;;;;10.30;10.00;;;24.40;99.90;;;;;;6206947;23;20230;-81
2023/09/18 11:39:36;;;;;;;10.10;9.80;;;24.40;99.90;;;;;;6211177;23;20203;-81
2023/09/18 11:42:11;;;;;;;10.18;9.88;;;24.40;99.90;;;;;;6214681;23;20195;-82
2023/09/18 11:44:45;;;;;;;9.88;9.57;;;24.40;99.90;;;;;;6214349;23;20203;-80
2023/09/18 11:47:19;;;;;;;10.10;9.80;;;24.40;99.90;;;;;;6214094;23;20202;-80
2023/09/18 11:49:54;;;;;;;9.90;9.60;;;24.20;99.90;;;;;;6214286;23;20219;-80
2023/09/18 11:52:22;;;;;;;9.70;9.40;;;24.20;99.90;;;;;;6213857;23;20205;-80
2023/09/18 11:54:51;;;;;;;9.65;9.35;;;24.20;99.90;;;;;;6212098;23;20196;-80
2023/09/18 11:57:19;;;;;;;9.80;9.50;;;24.30;99.90;;;;;;6214528;23;20183;-81
2023/09/18 11:59:47;;;;;;;9.90;9.60;;;24.20;99.90;;;;;;6216507;22;20185;-81
2023/09/18 12:02:20;;;;;;;10.20;9.90;;;24.10;99.90;;;;;;6216555;23;20200;-81
2023/09/18 12:04:48;;;;;;;10.30;10.00;;;23.90;99.90;;;;;;6215891;23;20194;-81
2023/09/18 12:07:15;;;;;;;10.02;9.73;;;23.80;99.90;;;;;;6215517;23;20255;-81
2023/09/18 12:09:42;;;;;;;9.80;9.50;;;23.50;99.90;;;;;;6214863;23;20183;-81
2023/09/18 12:12:14;;;;;;;9.60;9.30;;;23.30;99.90;;;;;;6213300;23;20204;-79
2023/09/18 12:14:42;;;;;;;9.95;9.65;;;23.10;99.90;;;;;;6211404;23;20195;-80
2023/09/18 12:17:09;;;;;;;10.10;9.80;;;22.90;99.90;;;;;;6203535;23;20255;-80
2023/09/18 12:19:36;;;;;;;10.30;10.00;;;22.80;99.90;;;;;;6202966;23;20203;-80
2023/09/18 12:22:04;;;;;;;10.07;9.77;;;22.50;99.90;;;;;;6203160;23;20199;-80
2023/09/18 12:24:32;;;;;;;10.25;9.95;;;22.30;99.90;;;;;;6204669;23;20204;-80
2023/09/18 12:27:00;;;;;;;10.20;9.90;;;22.00;99.90;;;;;;6204399;23;20192;-80
2023/09/18 12:29:28;;;;;;;10.35;10.05;;;21.80;99.90;;;;;;6203490;23;20279;-79
2023/09/18 12:31:56;;;;;;;10.45;10.15;;;21.70;99.90;;;;;;6203368;23;20218;-80
2023/09/18 12:34:23;;;;;;;10.43;10.13;;;21.50;99.90;;;;;;6203629;23;20258;-81
2023/09/18 12:36:52;;;;;;;10.90;10.60;;;21.20;99.90;;;;;;6204063;23;20192;-81
2023/09/18 12:39:19;;;;;;;10.70;10.40;;;21.00;99.90;;;;;;6203595;23;20200;-81
2023/09/18 12:41:48;;;;;;;10.80;10.50;;;20.90;99.90;;;;;;6203521;23;20195;-81
2023/09/18 12:44:16;;;;;;;10.50;10.20;;;20.90;99.90;;;;;;6204733;23;20225;-80
2023/09/18 12:46:46;;;;;;;10.55;10.25;;;20.80;99.90;;;;;;6204141;23;20308;-81
2023/09/18 12:49:21;;;;;;;10.55;10.25;;;20.80;99.90;;;;;;6203965;23;20214;-81
2023/09/18 12:51:59;;;;;;;11.00;10.70;;;20.70;99.90;;;;;;6203810;23;20258;-80
2023/09/18 12:54:44;;;;;;;10.50;10.20;;;20.60;99.90;;;;;;6202703;23;20208;-80
2023/09/18 12:57:17;;;;;;;10.45;10.15;;;20.50;99.90;;;;;;6203794;23;20192;-80
2023/09/18 12:59:44;;;;;;;10.40;10.10;;;20.50;99.90;;;;;;6202365;23;20239;-81
2023/09/18 13:02:15;;;;;;;10.38;10.07;;;20.40;99.90;;;;;;6203149;23;20210;-80
2023/09/18 13:04:42;;;;;;;9.95;9.65;;;20.30;99.90;;;;;;6202859;23;20220;-81
2023/09/18 13:07:11;;;;;;;10.18;9.88;;;20.20;99.90;;;;;;6203694;23;20200;-80
2023/09/18 13:09:39;;;;;;;9.90;9.60;;;20.10;99.90;;;;;;6201993;23;20197;-80
2023/09/18 13:12:07;;;;;;;9.93;9.63;;;19.90;99.90;;;;;;6201915;23;20274;-80
2023/09/18 13:15:00;;;;;;;10.18;9.88;;;19.70;99.90;;;;;;6207160;23;20223;-79
2023/09/18 13:17:28;;;;;;;9.88;9.57;;;19.60;99.90;;;;;;6200120;23;20192;-81
2023/09/18 13:19:55;;;;;;;9.73;9.43;;;19.50;99.90;;;;;;6201885;23;20290;-81
2023/09/18 13:22:26;;;;;;;9.63;9.32;;;19.50;99.90;;;;;;6201763;23;20238;-81
2023/09/18 13:24:57;;;;;;;9.68;9.38;;;19.40;99.90;;;;;;6203604;23;20207;-80
2023/09/18 13:27:28;;;;;;;9.52;9.23;;;19.30;99.90;;;;;;6203662;23;20199;-81
2023/09/18 13:29:55;;;;;;;9.80;9.50;;;19.20;99.90;;;;;;6215524;23;20187;-81
2023/09/18 13:32:22;;;;;;;10.00;9.70;;;19.10;99.90;;;;;;6210463;23;20290;-81
2023/09/18 13:34:50;;;;;;;9.52;9.23;;;18.90;99.90;;;;;;6203327;23;20210;-81
2023/09/18 13:37:20;;;;;;;9.43;9.13;;;18.90;99.90;;;;;;6203059;23;20200;-81
2023/09/18 13:39:47;;;;;;;9.50;9.20;;;18.80;99.90;;;;;;6201275;23;20203;-81
2023/09/18 13:42:14;;;;;;;9.50;9.20;;;18.70;99.90;;;;;;6200717;23;20221;-81
2023/09/18 13:44:41;;;;;;;9.57;9.27;;;18.60;99.90;;;;;;6201203;23;20219;-81
2023/09/18 13:47:08;;;;;;;9.25;8.95;;;18.50;99.90;;;;;;6200891;23;20281;-81
2023/09/18 19:50:59;;;;;;;9.35;9.05;;;16.60;99.90;;;;;;6188981;22;20207;-82
2023/09/18 19:53:26;;;;;;;9.30;9.00;;;16.60;99.90;;;;;;6202504;23;20202;-82
2023/09/18 19:55:53;;;;;;;9.45;9.15;;;16.60;99.90;;;;;;6203169;23;20270;-82
2023/09/18 19:58:20;;;;;;;9.32;9.02;;;16.60;99.90;;;;;;6204664;23;20191;-82
2023/09/18 20:00:48;;;;;;;9.57;9.27;;;16.60;99.90;;;;;;6203374;23;20203;-82
2023/09/18 20:03:15;;;;;;;9.68;9.38;;;16.70;99.90;;;;;;6203882;23;20203;-82
2023/09/18 20:05:42;;;;;;;9.30;9.00;;;16.80;99.90;;;;;;6204988;23;20227;-82
2023/09/18 20:08:10;;;;;;;9.20;8.90;;;16.80;99.90;;;;;;6203986;23;20203;-81
2023/09/18 20:10:37;;;;;;;9.40;9.10;;;16.80;99.90;;;;;;6205652;23;20334;-82
2023/09/18 20:13:05;;;;;;;9.50;9.20;;;16.80;99.90;;;;;;6205503;23;20286;-82
2023/09/18 20:15:32;;;;;;;9.60;9.30;;;16.80;99.90;;;;;;6212035;23;20192;-79
2023/09/18 20:17:59;;;;;;;9.35;9.05;;;16.80;99.90;;;;;;6208229;23;20192;-80
2023/09/18 20:20:26;;;;;;;9.45;9.15;;;16.90;99.90;;;;;;6204655;23;20212;-80
2023/09/18 20:22:53;;;;;;;9.60;9.30;;;16.90;99.90;;;;;;6206289;23;20234;-81
2023/09/18 20:25:22;;;;;;;9.60;9.30;;;16.80;99.90;;;;;;6207823;23;20203;-81
2023/09/18 20:27:49;;;;;;;9.50;9.20;;;16.80;99.90;;;;;;6208634;23;20203;-82
2023/09/18 20:30:16;;;;;;;9.40;9.10;;;16.70;99.90;;;;;;6210373;23;20218;-81
2023/09/18 20:32:44;;;;;;;9.63;9.32;;;16.70;99.90;;;;;;6214793;23;20191;-81
2023/09/18 20:35:14;;;;;;;9.80;9.50;;;16.70;99.90;;;;;;6216304;23;20227;-81
2023/09/18 20:37:41;;;;;;;9.70;9.40;;;16.70;99.90;;;;;;6216503;23;20196;-81
2023/09/18 20:40:09;;;;;;;9.65;9.35;;;16.70;99.90;;;;;;6216744;23;20184;-81
2023/09/18 20:42:37;;;;;;;9.70;9.40;;;16.60;99.90;;;;;;6213839;23;20191;-81
2023/09/18 20:45:06;;;;;;;9.75;9.45;;;16.60;99.90;;;;;;6217811;23;20207;-81
2023/09/18 20:47:33;;;;;;;9.80;9.50;;;16.60;99.90;;;;;;6217810;23;20192;-81
2023/09/18 20:50:01;;;;;;;9.60;9.30;;;16.60;99.90;;;;;;6215866;23;20207;-80
2023/09/18 20:52:28;;;;;;;9.68;9.38;;;16.60;99.90;;;;;;6216538;23;20199;-81
2023/09/18 20:54:55;;;;;;;9.55;9.25;;;16.60;99.90;;;;;;6216495;23;20196;-81
2023/09/18 20:57:22;;;;;;;9.65;9.35;;;16.60;99.90;;;;;;6216201;23;20207;-81
2023/09/18 20:59:51;;;;;;;9.43;9.13;;;16.60;99.90;;;;;;6215915;23;20191;-80
2023/09/18 21:02:18;;;;;;;9.27;8.98;;;16.60;99.90;;;;;;6213750;23;20219;-81
2023/09/18 21:04:46;;;;;;;9.35;9.05;;;16.60;99.90;;;;;;6212447;23;20207;-80
2023/09/18 21:07:13;;;;;;;9.10;8.80;;;16.60;99.90;;;;;;6204785;23;20208;-81
2023/09/18 21:09:40;;;;;;;9.20;8.90;;;16.60;99.90;;;;;;6201821;23;20206;-81
2023/09/18 21:12:09;;;;;;;9.40;9.10;;;16.70;99.90;;;;;;6201998;23;20258;-81
2023/09/18 21:14:36;;;;;;;9.20;8.90;;;16.70;99.90;;;;;;6201972;23;20234;-81
2023/09/18 21:17:05;;;;;;;9.15;8.85;;;16.70;99.90;;;;;;6201828;23;20230;-81
2023/09/18 21:19:32;;;;;;;9.20;8.90;;;16.70;99.90;;;;;;6201839;23;20219;-81
2023/09/18 21:22:00;;;;;;;9.38;9.07;;;16.70;99.90;;;;;;6200738;23;21050;-81
2023/09/18 21:24:27;;;;;;;9.25;8.95;;;16.70;99.90;;;;;;6202446;23;20203;-80
2023/09/18 21:26:54;;;;;;;9.60;9.30;;;16.70;99.90;;;;;;6201636;23;20276;-80
2023/09/18 21:29:25;;;;;;;9.70;9.40;;;16.70;99.90;;;;;;6202166;23;20199;-81
2023/09/18 21:31:52;;;;;;;9.52;9.23;;;16.70;99.90;;;;;;6201067;23;20267;-82
2023/09/18 21:34:21;;;;;;;9.30;9.00;;;16.80;99.90;;;;;;6202196;23;20263;-81
2023/09/18 21:36:48;;;;;;;9.43;9.13;;;16.70;99.90;;;;;;6201961;23;20204;-81
2023/09/18 21:39:15;;;;;;;9.60;9.30;;;16.80;99.90;;;;;;6201532;23;20236;-81
2023/09/18 21:41:43;;;;;;;9.48;9.18;;;16.80;99.90;;;;;;6202031;23;20203;-81
2023/09/18 21:44:12;;;;;;;9.38;9.07;;;16.80;99.90;;;;;;6201542;23;20214;-81
2023/09/18 21:46:40;;;;;;;9.30;9.00;;;16.90;99.90;;;;;;6201539;23;20191;-81
2023/09/18 21:49:07;;;;;;;9.05;8.75;;;16.90;99.90;;;;;;6201971;23;20212;-81
2023/09/18 21:51:38;;;;;;;9.52;9.23;;;17.00;99.90;;;;;;6201091;23;20233;-81
2023/09/18 21:54:06;;;;;;;9.50;9.20;;;17.00;99.90;;;;;;6201595;23;20210;-81
2023/09/18 21:56:33;;;;;;;9.20;8.90;;;17.00;99.90;;;;;;6202626;23;20226;-81
2023/09/18 21:59:02;;;;;;;9.30;9.00;;;16.90;99.90;;;;;;6201023;23;20194;-82
2023/09/18 22:01:29;;;;;;;8.90;8.60;;;17.00;99.90;;;;;;6201803;23;20204;-81
2023/09/18 22:03:56;;;;;;;9.43;9.13;;;17.00;99.90;;;;;;6201527;23;20214;-81
2023/09/18 22:06:23;;;;;;;9.45;9.15;;;16.90;99.90;;;;;;6202348;23;20223;-81
2023/09/18 22:08:52;;;;;;;9.73;9.43;;;17.00;99.90;;;;;;6202509;23;20213;-81
2023/09/18 22:11:20;;;;;;;9.63;9.32;;;17.00;99.90;;;;;;6205613;23;20204;-81
2023/09/18 22:13:47;;;;;;;9.27;8.98;;;17.00;99.90;;;;;;6208796;23;20250;-81
2023/09/18 22:16:14;;;;;;;9.50;9.20;;;17.10;99.90;;;;;;6207802;23;20203;-81
2023/09/18 22:18:43;;;;;;;9.80;9.50;;;17.10;99.90;;;;;;6205053;23;20195;-81
2023/09/18 22:21:11;;;;;;;9.82;9.52;;;17.00;99.90;;;;;;6203835;23;20199;-81
2023/09/18 22:23:38;;;;;;;9.70;9.40;;;17.00;99.90;;;;;;6203670;23;20265;-81
2023/09/18 22:26:07;;;;;;;9.50;9.20;;;17.00;99.90;;;;;;6203207;23;20198;-81
2023/09/18 22:28:36;;;;;;;9.50;9.20;;;16.90;99.90;;;;;;6202507;23;20199;-81
2023/09/18 22:31:03;;;;;;;9.45;9.15;;;16.90;99.90;;;;;;6202369;23;20203;-81
2023/09/18 22:33:31;;;;;;;9.43;9.13;;;17.00;99.90;;;;;;6202115;23;20255;-81
2023/09/18 22:36:00;;;;;;;9.52;9.23;;;17.00;99.90;;;;;;6201735;23;20260;-81
2023/09/18 22:38:35;;;;;;;9.30;9.00;;;17.00;99.90;;;;;;6202012;23;20204;-81
2023/09/18 22:41:03;;;;;;;9.32;9.02;;;17.00;99.90;;;;;;6201708;23;20199;-81
2023/09/18 22:44:26;;;;;;;9.38;9.07;;;17.00;99.90;;;;;;6201827;23;20191;-81
2023/09/18 22:47:50;;;;;;;9.48;9.18;;;17.00;99.90;;;;;;6202030;23;20905;-81
2023/09/18 22:51:13;;;;;;;9.35;9.05;;;16.90;99.90;;;;;;6201977;23;20211;-81
2023/09/18 22:53:40;;;;;;;9.20;8.90;;;16.90;99.90;;;;;;6201939;23;20211;-81
2023/09/18 22:56:10;;;;;;;9.23;8.93;;;16.80;99.90;;;;;;6202022;23;20219;-81
2023/09/18 22:58:37;;;;;;;9.30;9.00;;;16.80;99.90;;;;;;6202664;23;20226;-81
2023/09/18 23:01:05;;;;;;;9.00;8.70;;;16.80;99.90;;;;;;6202769;23;20211;-82
2023/09/18 23:03:32;;;;;;;9.20;8.90;;;16.80;99.90;;;;;;6202081;23;21032;-81
2023/09/18 23:05:59;;;;;;;8.98;8.68;;;16.70;99.90;;;;;;6201310;23;20200;-81
2023/09/18 23:08:27;;;;;;;8.88;8.60;;;16.70;99.90;;;;;;6201777;23;20203;-81
2023/09/18 23:10:55;;;;;;;8.90;8.60;;;16.70;99.90;;;;;;6201568;23;20192;-80
2023/09/18 23:13:24;;;;;;;8.85;8.60;;;16.70;99.90;;;;;;6201584;23;20227;-81
2023/09/18 23:15:52;;;;;;;8.95;8.65;;;16.80;99.90;;;;;;6201946;23;20209;-81
2023/09/18 23:18:20;;;;;;;9.10;8.80;;;16.80;99.90;;;;;;6202226;23;20239;-81
2023/09/18 23:20:48;;;;;;;8.95;8.65;;;16.80;99.90;;;;;;6201518;23;20196;-81
2023/09/18 23:23:16;;;;;;;9.23;8.93;;;16.80;99.90;;;;;;6201332;23;20196;-81
2023/09/18 23:25:45;;;;;;;9.18;8.88;;;16.80;99.90;;;;;;6201562;23;20204;-80
2023/09/18 23:28:15;;;;;;;9.30;9.00;;;16.90;99.90;;;;;;6201018;23;20196;-81
2023/09/18 23:30:43;;;;;;;9.20;8.90;;;16.90;99.90;;;;;;6200969;23;20208;-81
2023/09/18 23:33:11;;;;;;;9.00;8.70;;;17.00;99.90;;;;;;6200814;23;20251;-81
2023/09/18 23:35:39;;;;;;;9.50;9.20;;;17.00;99.90;;;;;;6200995;23;20207;-81
2023/09/18 23:38:09;;;;;;;9.10;8.80;;;17.00;99.90;;;;;;6200558;23;20207;-81
2023/09/18 23:40:38;;;;;;;9.30;9.00;;;17.00;99.90;;;;;;6201689;23;20211;-81
2023/09/18 23:43:08;;;;;;;9.43;9.13;;;17.00;99.90;;;;;;6200414;23;20191;-81
2023/09/18 23:45:41;;;;;;;9.50;9.20;;;17.00;99.90;;;;;;6201559;23;20196;-81
2023/09/18 23:48:13;;;;;;;9.52;9.23;;;17.00;99.90;;;;;;6200082;23;20278;-81
2023/09/18 23:50:41;;;;;;;9.68;9.38;;;17.00;99.90;;;;;;6200949;23;20211;-80
2023/09/18 23:53:10;;;;;;;9.70;9.40;;;17.00;99.90;;;;;;6201081;23;20227;-81
2023/09/18 23:55:37;;;;;;;9.70;9.40;;;17.00;99.90;;;;;;6201360;23;20287;-80
2023/09/18 23:58:07;;;;;;;9.63;9.32;;;17.00;99.90;;;;;;6200441;23;20223;-80
